Accueil
METAR-TAF:

METAR-TAF

Aéroports :

Majuro, Îles Marshall

Aéroport international des îles Marshall

latitude: 07-04N, longitude: 171-17E, altitude: 2 m

Observation

Le bulletin a été fait il y a 1 heure et 2 minutes, à 22:53 UTC
Vent 8 kt de est/nord-est
Température 30°C
Humidité 75%
Pression 1010 hPa
Visibilité: 24.1 km
Quelques nuages à une hauteur de 1500 ft
Nuages épars à une hauteur de 5000 ft
Nuages épars à une hauteur de 12000 ft
Nuages fragmentés à une hauteur de 30000 ft

METAR: PKMJ 202253Z 07008KT 15SM FEW015 SCT050 SCT120 BKN300 30/25 A2982

Heure: 11:55 (23:55 UTC)

Prévision

Le bulletin a été fait il y a 13 minutes, à 23:42 UTC
Prévision valable du 21 à 00 UTC au 21 à 24 UTC
Vent 8 kt de sud/sud-est
Visibilité: 10 km
Quelques nuages à une hauteur de 1500 ft
Nuages épars à une hauteur de 5000 ft
Nuages épars à une hauteur de 12000 ft
averses à proximité

TAF: PKMJ 202342Z 2100/2124 15008KT P6SM VCSH FEW015 SCT050 SCT120

Observations et prévisions météorologiques de plus de 4000 aéroports (messages METAR et TAF).

Les stations disponibles sont représentées par des disques jaunes et rouges sur la carte.

Passer la souris dessus pour voir le nom de la station.

Cliquer dessus pour voir les observations et prévisions météorologiques.

Pour changer de carte: cliquez sur les boutons verts avec une croix noire pour zoomer, sur le bouton vert avec un tiret pour effectuer un zoom arrière, ou sur les flèches vertes pour les cartes adjacentes.


METAR-TAF: